Watkinsville, GA

6:02 PM EST on December 19, 2014 (GMT -0500)
KGAATHEN11 | Change Station
CLOSE
Current Station
Personal Weather Station
Location: Athens, GA
Elevation: 711 ft
Nearby Weather Stations

Elev 711 ft 33.95 °N, 83.38 °W | Updated 36 seconds ago

Mostly Cloudy
Mostly Cloudy
56.0 °F
Feels Like 56.0 °F
N
0.0
Wind Variable Wind from ENE
Gusts 3.0 mph

Today
High -- | Low -- °F
--% Chance of Precip.
Yesterday
High -- | Low -- °F
Precip. -- in
7:33 AM 5:27 PM
Waning Crescent, 6% visible
Pressure 30.11 in
Visibility 10.0 miles
Clouds Clear
Dew Point 38 °F
Humidity 51%
Rainfall 0.00 in
Snow Depth Not available.
UV 0.0 out of 12
Pollen 1.80 out of 12
Air Quality Not available.
Flu Activity Not available.
METAR KAHN 192251Z 08003KT 10SM CLR 11/03 A3010 RMK AO2 SLP196 T01060033

More Conditions Fewer Conditions

Pressure 30.11 in
Visibility 10.0 miles
Clouds Clear
Dew Point 38 °F
Humidity 51%
Rainfall 0.00 in
Snow Depth Not available.
UV 0.0 out of 12
Pollen 1.80 out of 12
Air Quality Not available.
Flu Activity Not available.
METAR KAHN 192251Z 08003KT 10SM CLR 11/03 A3010 RMK AO2 SLP196 T01060033

More Conditions Fewer Conditions

10-Day Weather Forecast

Almanac

Astronomy

Dec. 19, 2014 Rise Set
Actual Time
Civil Twilight
Nautical Twilight
Astronomical Twilight
Moon
Length of Visible Light
Length of Day
Tomorrow will be .
, % of the Moon is Illuminated

Today's Extremes

State Highs State Lows

Community

WunderPhotos

Upload Photos

1,779,073 photos uploaded!

WunderBlogs® & News

Nearby

Air Quality

  Air Quality AQ Index Pollutant
Not available.

Snow Depth

Station Depth Elevation

Earthquake Activity

City Distance Mag. Time & Date
Minimum magnitude displayed is 2.5.

Coastal Water Temperatures

Place Temperature

Nearby Weather Stations